CSN3256 ZSSS-ZGSZ
Flight info
| Callsign | CSN3256 |
|---|---|
| Flight time | 1h 57m |
| Altitude | 34100 |
| Route | NXD71D NXD W131 AKDIM A470 BEBEM R200 GUBLO |
| Aircraft | A20N/M-SDE2E3FGHIRWXY/LB1 |
Departure
| Time | 2026-05-08 07:49 |
|---|---|
| Airport | Shanghai Hongqiao International Airport (ZSSS) |
Arrival
| Time | 2026-05-08 09:46 |
|---|---|
| Airport | Shenzhen Bao'an International Airport (ZGSZ) |
| Time | Latitude | Longitude | Altitude | Speed | Heading |
|---|---|---|---|---|---|
| 2026-05-08 07:22 | 31.19876 | 121.32838 | 18 ft | 0 kts | 267° |
| 2026-05-08 07:36 | 31.19876 | 121.32853 | 18 ft | 3 kts | 267° |
| 2026-05-08 07:37 | 31.19877 | 121.32883 | 18 ft | 3 kts | 267° |
| 2026-05-08 07:37 | 31.19879 | 121.32915 | 18 ft | 3 kts | 267° |
| 2026-05-08 07:37 | 31.19888 | 121.32941 | 18 ft | 3 kts | 221° |
| 2026-05-08 07:37 | 31.19909 | 121.32949 | 18 ft | 0 kts | 176° |
| 2026-05-08 07:40 | 31.19908 | 121.32949 | 18 ft | 0 kts | 177° |
| 2026-05-08 07:40 | 31.19897 | 121.32950 | 18 ft | 3 kts | 177° |
| 2026-05-08 07:40 | 31.19862 | 121.32960 | 18 ft | 6 kts | 159° |
| 2026-05-08 07:40 | 31.19804 | 121.32970 | 18 ft | 10 kts | 177° |
| 2026-05-08 07:41 | 31.19722 | 121.32973 | 18 ft | 13 kts | 176° |
| 2026-05-08 07:41 | 31.19624 | 121.32980 | 18 ft | 14 kts | 177° |
| 2026-05-08 07:41 | 31.19517 | 121.32985 | 18 ft | 15 kts | 177° |
| 2026-05-08 07:41 | 31.19441 | 121.32999 | 18 ft | 9 kts | 139° |
| 2026-05-08 07:42 | 31.19396 | 121.33062 | 18 ft | 10 kts | 135° |
| 2026-05-08 07:42 | 31.19319 | 121.33080 | 18 ft | 12 kts | 178° |
| 2026-05-08 07:42 | 31.19221 | 121.33084 | 18 ft | 15 kts | 178° |
| 2026-05-08 07:42 | 31.19108 | 121.33090 | 18 ft | 17 kts | 177° |
| 2026-05-08 07:43 | 31.18978 | 121.33099 | 18 ft | 19 kts | 176° |
| 2026-05-08 07:43 | 31.18836 | 121.33106 | 18 ft | 21 kts | 178° |
| 2026-05-08 07:43 | 31.18685 | 121.33115 | 18 ft | 21 kts | 176° |
| 2026-05-08 07:43 | 31.18537 | 121.33123 | 18 ft | 20 kts | 177° |
| 2026-05-08 07:44 | 31.18394 | 121.33130 | 18 ft | 16 kts | 177° |
| 2026-05-08 07:44 | 31.18340 | 121.33157 | 18 ft | 8 kts | 108° |
| 2026-05-08 07:44 | 31.18340 | 121.33232 | 18 ft | 9 kts | 86° |
| 2026-05-08 07:44 | 31.18343 | 121.33315 | 18 ft | 10 kts | 87° |
| 2026-05-08 07:45 | 31.18348 | 121.33403 | 18 ft | 11 kts | 87° |
| 2026-05-08 07:45 | 31.18351 | 121.33497 | 18 ft | 11 kts | 87° |
| 2026-05-08 07:45 | 31.18354 | 121.33565 | 18 ft | 4 kts | 87° |
| 2026-05-08 07:45 | 31.18354 | 121.33581 | 18 ft | 0 kts | 87° |
| 2026-05-08 07:46 | 31.18354 | 121.33585 | 18 ft | 1 kts | 87° |
| 2026-05-08 07:46 | 31.18355 | 121.33603 | 18 ft | 3 kts | 87° |
| 2026-05-08 07:46 | 31.18357 | 121.33644 | 18 ft | 6 kts | 87° |
| 2026-05-08 07:47 | 31.18371 | 121.33701 | 17 ft | 8 kts | 26° |
| 2026-05-08 07:47 | 31.18421 | 121.33704 | 16 ft | 5 kts | 358° |
| 2026-05-08 07:47 | 31.18425 | 121.33704 | 16 ft | 0 kts | 358° |
| 2026-05-08 07:48 | 31.18426 | 121.33704 | 16 ft | 0 kts | 357° |
| 2026-05-08 07:48 | 31.18545 | 121.33697 | 15 ft | 50 kts | 357° |
| 2026-05-08 07:48 | 31.19142 | 121.33665 | 12 ft | 118 kts | 357° |
| 2026-05-08 07:49 | 31.20145 | 121.33618 | 34 ft | 168 kts | 359° |
| 2026-05-08 07:49 | 31.21294 | 121.33552 | 679 ft | 163 kts | 359° |
| 2026-05-08 07:49 | 31.22394 | 121.33240 | 1296 ft | 171 kts | 330° |
| 2026-05-08 07:49 | 31.23172 | 121.32220 | 1960 ft | 174 kts | 304° |
| 2026-05-08 07:50 | 31.23756 | 121.30907 | 2370 ft | 190 kts | 300° |
| 2026-05-08 07:50 | 31.24373 | 121.29493 | 2754 ft | 205 kts | 301° |
| 2026-05-08 07:50 | 31.25089 | 121.27975 | 2975 ft | 216 kts | 303° |
| 2026-05-08 07:50 | 31.25857 | 121.26444 | 2988 ft | 219 kts | 304° |
| 2026-05-08 07:51 | 31.26662 | 121.24900 | 3274 ft | 231 kts | 304° |
| 2026-05-08 07:51 | 31.27432 | 121.23145 | 3631 ft | 257 kts | 285° |
| 2026-05-08 07:51 | 31.27368 | 121.21030 | 4174 ft | 275 kts | 249° |
| 2026-05-08 07:51 | 31.26371 | 121.19131 | 4967 ft | 280 kts | 232° |
| 2026-05-08 07:52 | 31.25134 | 121.17331 | 5750 ft | 286 kts | 231° |
| 2026-05-08 07:52 | 31.23904 | 121.15531 | 6579 ft | 290 kts | 232° |
| 2026-05-08 07:52 | 31.22670 | 121.13665 | 7400 ft | 293 kts | 231° |
| 2026-05-08 07:52 | 31.21119 | 121.12156 | 8191 ft | 296 kts | 203° |
| 2026-05-08 07:53 | 31.19120 | 121.11736 | 9059 ft | 294 kts | 176° |
| 2026-05-08 07:53 | 31.17065 | 121.11912 | 9791 ft | 300 kts | 175° |
| 2026-05-08 07:53 | 31.14963 | 121.12105 | 10431 ft | 308 kts | 176° |
| 2026-05-08 07:53 | 31.12786 | 121.12270 | 10883 ft | 323 kts | 177° |
| 2026-05-08 07:54 | 31.10479 | 121.12281 | 11213 ft | 339 kts | 190° |
| 2026-05-08 07:54 | 31.08238 | 121.11333 | 11537 ft | 351 kts | 215° |
| 2026-05-08 07:54 | 31.06455 | 121.09365 | 12014 ft | 355 kts | 238° |
| 2026-05-08 07:54 | 31.05458 | 121.06789 | 12723 ft | 351 kts | 257° |
| 2026-05-08 07:55 | 31.04822 | 121.04054 | 13489 ft | 351 kts | 257° |
| 2026-05-08 07:55 | 31.04179 | 121.01327 | 14227 ft | 353 kts | 257° |
| 2026-05-08 07:55 | 31.03520 | 120.98582 | 14971 ft | 353 kts | 257° |
| 2026-05-08 07:55 | 31.02855 | 120.95849 | 15718 ft | 352 kts | 256° |
| 2026-05-08 07:56 | 31.02185 | 120.93121 | 16412 ft | 352 kts | 256° |
| 2026-05-08 07:56 | 31.01517 | 120.90413 | 17117 ft | 351 kts | 256° |
| 2026-05-08 07:56 | 31.00838 | 120.87672 | 17820 ft | 350 kts | 256° |
| 2026-05-08 07:56 | 31.00165 | 120.84962 | 18427 ft | 351 kts | 256° |
| 2026-05-08 07:57 | 30.99487 | 120.82234 | 18930 ft | 355 kts | 256° |
| 2026-05-08 07:57 | 30.98794 | 120.79453 | 19267 ft | 364 kts | 256° |
| 2026-05-08 07:57 | 30.98088 | 120.76622 | 19751 ft | 367 kts | 256° |
| 2026-05-08 07:57 | 30.97374 | 120.73765 | 20286 ft | 369 kts | 255° |
| 2026-05-08 07:58 | 30.96656 | 120.70892 | 20823 ft | 370 kts | 255° |
| 2026-05-08 07:58 | 30.95939 | 120.68025 | 21305 ft | 373 kts | 255° |
| 2026-05-08 07:58 | 30.95206 | 120.65098 | 21797 ft | 375 kts | 255° |
| 2026-05-08 07:58 | 30.94481 | 120.62209 | 22299 ft | 376 kts | 255° |
| 2026-05-08 07:59 | 30.93748 | 120.59284 | 22631 ft | 378 kts | 256° |
| 2026-05-08 07:59 | 30.93014 | 120.56356 | 22734 ft | 378 kts | 255° |
| 2026-05-08 07:59 | 30.92279 | 120.53437 | 22740 ft | 378 kts | 255° |
| 2026-05-08 07:59 | 30.91534 | 120.50478 | 22744 ft | 377 kts | 255° |
| 2026-05-08 08:00 | 30.90793 | 120.47572 | 22746 ft | 378 kts | 254° |
| 2026-05-08 08:00 | 30.89713 | 120.44767 | 22745 ft | 381 kts | 243° |
| 2026-05-08 08:00 | 30.88124 | 120.42278 | 22742 ft | 386 kts | 232° |
| 2026-05-08 08:00 | 30.86099 | 120.40180 | 22767 ft | 396 kts | 222° |
| 2026-05-08 08:01 | 30.83854 | 120.38309 | 23130 ft | 401 kts | 221° |
| 2026-05-08 08:01 | 30.81597 | 120.36455 | 23670 ft | 400 kts | 221° |
| 2026-05-08 08:01 | 30.79315 | 120.34587 | 24159 ft | 402 kts | 221° |
| 2026-05-08 08:01 | 30.77027 | 120.32700 | 24609 ft | 404 kts | 221° |
| 2026-05-08 08:02 | 30.74736 | 120.30803 | 25062 ft | 407 kts | 221° |
| 2026-05-08 08:02 | 30.72411 | 120.28883 | 25496 ft | 409 kts | 221° |
| 2026-05-08 08:02 | 30.70101 | 120.26979 | 25902 ft | 412 kts | 221° |
| 2026-05-08 08:02 | 30.67753 | 120.25047 | 26323 ft | 414 kts | 221° |
| 2026-05-08 08:03 | 30.65410 | 120.23122 | 26735 ft | 415 kts | 221° |
| 2026-05-08 08:03 | 30.63060 | 120.21195 | 27131 ft | 417 kts | 222° |
| 2026-05-08 08:03 | 30.60690 | 120.19250 | 27567 ft | 417 kts | 222° |
| 2026-05-08 08:03 | 30.58313 | 120.17303 | 28044 ft | 416 kts | 222° |
| 2026-05-08 08:04 | 30.55978 | 120.15391 | 28542 ft | 414 kts | 223° |
| 2026-05-08 08:04 | 30.53631 | 120.13471 | 29023 ft | 412 kts | 223° |
| 2026-05-08 08:04 | 30.51288 | 120.11551 | 29468 ft | 411 kts | 223° |
| 2026-05-08 08:04 | 30.48943 | 120.09631 | 29881 ft | 410 kts | 223° |
| 2026-05-08 08:05 | 30.46646 | 120.07755 | 30302 ft | 408 kts | 223° |
| 2026-05-08 08:05 | 30.44305 | 120.05882 | 30674 ft | 410 kts | 221° |
| 2026-05-08 08:05 | 30.41880 | 120.04143 | 31086 ft | 411 kts | 219° |
| 2026-05-08 08:05 | 30.39427 | 120.02514 | 31639 ft | 405 kts | 219° |
| 2026-05-08 08:06 | 30.36993 | 120.00897 | 32211 ft | 399 kts | 219° |
| 2026-05-08 08:06 | 30.34590 | 119.99293 | 32613 ft | 396 kts | 220° |
| 2026-05-08 08:06 | 30.32203 | 119.97696 | 32862 ft | 397 kts | 220° |
| 2026-05-08 08:06 | 30.29822 | 119.96103 | 33091 ft | 399 kts | 219° |
| 2026-05-08 08:07 | 30.27427 | 119.94503 | 33330 ft | 400 kts | 219° |
| 2026-05-08 08:07 | 30.24995 | 119.92884 | 33531 ft | 401 kts | 220° |
| 2026-05-08 08:07 | 30.22577 | 119.91273 | 33792 ft | 401 kts | 220° |
| 2026-05-08 08:07 | 30.20176 | 119.89677 | 34030 ft | 402 kts | 220° |
| 2026-05-08 08:08 | 30.17745 | 119.88062 | 34216 ft | 403 kts | 220° |
| 2026-05-08 08:08 | 30.12903 | 119.84843 | 34241 ft | 403 kts | 220° |
| 2026-05-08 08:09 | 30.08030 | 119.81606 | 34246 ft | 403 kts | 220° |
| 2026-05-08 08:09 | 30.03176 | 119.78381 | 34245 ft | 403 kts | 220° |
| 2026-05-08 08:10 | 29.98314 | 119.75103 | 34248 ft | 403 kts | 221° |
| 2026-05-08 08:10 | 29.93501 | 119.71868 | 34256 ft | 404 kts | 220° |
| 2026-05-08 08:11 | 29.88364 | 119.69073 | 34260 ft | 414 kts | 212° |
| 2026-05-08 08:11 | 29.82762 | 119.67120 | 34252 ft | 426 kts | 204° |
| 2026-05-08 08:12 | 29.76823 | 119.66113 | 34258 ft | 438 kts | 195° |
| 2026-05-08 08:12 | 29.70720 | 119.65659 | 34250 ft | 440 kts | 195° |
| 2026-05-08 08:13 | 29.64602 | 119.65224 | 34250 ft | 441 kts | 195° |
| 2026-05-08 08:13 | 29.58446 | 119.64990 | 34248 ft | 444 kts | 192° |
| 2026-05-08 08:14 | 29.52241 | 119.64787 | 34245 ft | 444 kts | 194° |
| 2026-05-08 08:14 | 29.46097 | 119.64404 | 34248 ft | 444 kts | 195° |
| 2026-05-08 08:15 | 29.39916 | 119.64008 | 34251 ft | 443 kts | 194° |
| 2026-05-08 08:15 | 29.33743 | 119.63624 | 34250 ft | 444 kts | 194° |
| 2026-05-08 08:16 | 29.27599 | 119.63242 | 34245 ft | 445 kts | 194° |
| 2026-05-08 08:16 | 29.21413 | 119.62858 | 34251 ft | 445 kts | 194° |
| 2026-05-08 08:17 | 29.15213 | 119.62472 | 34248 ft | 445 kts | 194° |
| 2026-05-08 08:17 | 29.09060 | 119.62094 | 34240 ft | 446 kts | 194° |
| 2026-05-08 08:18 | 29.02855 | 119.61719 | 34246 ft | 447 kts | 194° |
| 2026-05-08 08:18 | 28.96610 | 119.61338 | 34246 ft | 448 kts | 194° |
| 2026-05-08 08:19 | 28.90399 | 119.60952 | 34238 ft | 447 kts | 194° |
| 2026-05-08 08:19 | 28.84200 | 119.60572 | 34233 ft | 447 kts | 194° |
| 2026-05-08 08:20 | 28.77992 | 119.60191 | 34230 ft | 448 kts | 194° |
| 2026-05-08 08:20 | 28.71736 | 119.59802 | 34221 ft | 448 kts | 194° |
| 2026-05-08 08:21 | 28.65556 | 119.59417 | 34222 ft | 447 kts | 194° |
| 2026-05-08 08:21 | 28.59314 | 119.59026 | 34230 ft | 447 kts | 194° |
| 2026-05-08 08:22 | 28.53088 | 119.58632 | 34218 ft | 448 kts | 194° |
| 2026-05-08 08:22 | 28.46880 | 119.58244 | 34218 ft | 449 kts | 194° |
| 2026-05-08 08:23 | 28.40620 | 119.57891 | 34216 ft | 450 kts | 193° |
| 2026-05-08 08:23 | 28.34417 | 119.57558 | 34214 ft | 448 kts | 193° |
| 2026-05-08 08:24 | 28.28171 | 119.57213 | 34217 ft | 449 kts | 193° |
| 2026-05-08 08:24 | 28.21919 | 119.56862 | 34213 ft | 450 kts | 193° |
| 2026-05-08 08:25 | 28.15673 | 119.56509 | 34210 ft | 450 kts | 193° |
| 2026-05-08 08:25 | 28.09431 | 119.56194 | 34206 ft | 452 kts | 191° |
| 2026-05-08 08:26 | 28.03088 | 119.56097 | 34197 ft | 453 kts | 191° |
| 2026-05-08 08:26 | 27.96823 | 119.56000 | 34202 ft | 452 kts | 191° |
| 2026-05-08 08:27 | 27.90528 | 119.55907 | 34211 ft | 453 kts | 190° |
| 2026-05-08 08:27 | 27.84176 | 119.55887 | 34209 ft | 455 kts | 190° |
| 2026-05-08 08:28 | 27.77858 | 119.55868 | 34207 ft | 453 kts | 190° |
| 2026-05-08 08:28 | 27.71559 | 119.55833 | 34209 ft | 454 kts | 190° |
| 2026-05-08 08:29 | 27.65215 | 119.55793 | 34206 ft | 454 kts | 190° |
| 2026-05-08 08:29 | 27.58897 | 119.55753 | 34208 ft | 453 kts | 190° |
| 2026-05-08 08:30 | 27.52588 | 119.55711 | 34206 ft | 453 kts | 190° |
| 2026-05-08 08:30 | 27.43113 | 119.55650 | 34205 ft | 453 kts | 190° |
| 2026-05-08 08:31 | 27.36820 | 119.55641 | 34201 ft | 454 kts | 189° |
| 2026-05-08 08:31 | 27.30506 | 119.55630 | 34198 ft | 454 kts | 189° |
| 2026-05-08 08:32 | 27.24186 | 119.55617 | 34194 ft | 454 kts | 189° |
| 2026-05-08 08:32 | 27.17853 | 119.55592 | 34197 ft | 454 kts | 189° |
| 2026-05-08 08:33 | 27.11565 | 119.55554 | 34192 ft | 453 kts | 189° |
| 2026-05-08 08:33 | 27.05265 | 119.55512 | 34191 ft | 454 kts | 189° |
| 2026-05-08 08:34 | 26.98923 | 119.55472 | 34185 ft | 453 kts | 189° |
| 2026-05-08 08:34 | 26.92629 | 119.55430 | 34182 ft | 453 kts | 189° |
| 2026-05-08 08:35 | 26.86291 | 119.55391 | 34182 ft | 453 kts | 189° |
| 2026-05-08 08:35 | 26.80018 | 119.55355 | 34181 ft | 453 kts | 189° |
| 2026-05-08 08:36 | 26.73699 | 119.55312 | 34179 ft | 454 kts | 189° |
| 2026-05-08 08:36 | 26.67373 | 119.55272 | 34178 ft | 453 kts | 189° |
| 2026-05-08 08:37 | 26.61069 | 119.55228 | 34178 ft | 453 kts | 189° |
| 2026-05-08 08:37 | 26.54744 | 119.55183 | 34176 ft | 453 kts | 189° |
| 2026-05-08 08:38 | 26.48441 | 119.55136 | 34173 ft | 453 kts | 189° |
| 2026-05-08 08:38 | 26.42163 | 119.55090 | 34173 ft | 452 kts | 189° |
| 2026-05-08 08:39 | 26.35845 | 119.55039 | 34172 ft | 453 kts | 189° |
| 2026-05-08 08:39 | 26.29536 | 119.54960 | 34170 ft | 454 kts | 189° |
| 2026-05-08 08:40 | 26.23323 | 119.54491 | 34168 ft | 446 kts | 196° |
| 2026-05-08 08:40 | 26.17264 | 119.53231 | 34169 ft | 438 kts | 202° |
| 2026-05-08 08:41 | 26.11449 | 119.51329 | 34171 ft | 433 kts | 206° |
| 2026-05-08 08:41 | 26.05705 | 119.49348 | 34167 ft | 433 kts | 206° |
| 2026-05-08 08:42 | 25.99915 | 119.47363 | 34168 ft | 434 kts | 205° |
| 2026-05-08 08:42 | 25.94133 | 119.45387 | 34170 ft | 435 kts | 205° |
| 2026-05-08 08:43 | 25.88332 | 119.43410 | 34167 ft | 435 kts | 205° |
| 2026-05-08 08:43 | 25.82559 | 119.41454 | 34166 ft | 434 kts | 206° |
| 2026-05-08 08:44 | 25.77055 | 119.38954 | 34165 ft | 423 kts | 216° |
| 2026-05-08 08:44 | 25.72088 | 119.35529 | 34161 ft | 415 kts | 224° |
| 2026-05-08 08:45 | 25.67749 | 119.31281 | 34156 ft | 419 kts | 232° |
| 2026-05-08 08:45 | 25.63716 | 119.26532 | 34156 ft | 428 kts | 233° |
| 2026-05-08 08:46 | 25.59626 | 119.21709 | 34152 ft | 432 kts | 233° |
| 2026-05-08 08:46 | 25.55515 | 119.16882 | 34154 ft | 432 kts | 233° |
| 2026-05-08 08:47 | 25.51391 | 119.12045 | 34153 ft | 432 kts | 233° |
| 2026-05-08 08:47 | 25.47264 | 119.07210 | 34153 ft | 431 kts | 232° |
| 2026-05-08 08:48 | 25.43157 | 119.02402 | 34151 ft | 431 kts | 233° |
| 2026-05-08 08:48 | 25.39066 | 118.97616 | 34150 ft | 431 kts | 233° |
| 2026-05-08 08:49 | 25.34939 | 118.92793 | 34149 ft | 431 kts | 232° |
| 2026-05-08 08:49 | 25.30855 | 118.87929 | 34144 ft | 431 kts | 233° |
| 2026-05-08 08:50 | 25.26843 | 118.83061 | 34139 ft | 430 kts | 233° |
| 2026-05-08 08:50 | 25.22795 | 118.78155 | 34135 ft | 431 kts | 233° |
| 2026-05-08 08:51 | 25.18764 | 118.73279 | 34131 ft | 431 kts | 233° |
| 2026-05-08 08:51 | 25.14711 | 118.68378 | 34130 ft | 432 kts | 233° |
| 2026-05-08 08:52 | 25.10665 | 118.63496 | 34130 ft | 432 kts | 233° |
| 2026-05-08 08:52 | 25.06572 | 118.58682 | 34128 ft | 434 kts | 232° |
| 2026-05-08 08:53 | 25.02372 | 118.53896 | 34125 ft | 434 kts | 232° |
| 2026-05-08 08:53 | 24.98204 | 118.49134 | 34121 ft | 434 kts | 232° |
| 2026-05-08 08:54 | 24.93989 | 118.44308 | 34116 ft | 435 kts | 232° |
| 2026-05-08 08:54 | 24.89813 | 118.39526 | 34114 ft | 435 kts | 232° |
| 2026-05-08 08:55 | 24.85606 | 118.34744 | 34112 ft | 435 kts | 232° |
| 2026-05-08 08:55 | 24.81398 | 118.29928 | 34109 ft | 436 kts | 232° |
| 2026-05-08 08:56 | 24.77229 | 118.25149 | 34108 ft | 436 kts | 232° |
| 2026-05-08 08:56 | 24.73029 | 118.20348 | 34108 ft | 436 kts | 232° |
| 2026-05-08 08:57 | 24.68790 | 118.15522 | 34109 ft | 437 kts | 232° |
| 2026-05-08 08:57 | 24.64579 | 118.10741 | 34108 ft | 439 kts | 232° |
| 2026-05-08 08:58 | 24.60330 | 118.05911 | 34107 ft | 439 kts | 231° |
| 2026-05-08 08:58 | 24.56071 | 118.01074 | 34108 ft | 439 kts | 232° |
| 2026-05-08 08:59 | 24.51959 | 117.96151 | 34106 ft | 438 kts | 233° |
| 2026-05-08 08:59 | 24.47890 | 117.91213 | 34103 ft | 437 kts | 233° |
| 2026-05-08 09:00 | 24.43792 | 117.86256 | 34097 ft | 437 kts | 233° |
| 2026-05-08 09:00 | 24.39720 | 117.81340 | 34094 ft | 437 kts | 233° |
| 2026-05-08 09:01 | 24.35639 | 117.76419 | 34085 ft | 438 kts | 233° |
| 2026-05-08 09:01 | 24.31535 | 117.71478 | 34082 ft | 438 kts | 233° |
| 2026-05-08 09:02 | 24.27443 | 117.66552 | 34083 ft | 438 kts | 233° |
| 2026-05-08 09:02 | 24.23351 | 117.61629 | 34086 ft | 437 kts | 233° |
| 2026-05-08 09:03 | 24.19707 | 117.57250 | 34098 ft | 437 kts | 233° |
| 2026-05-08 09:03 | 24.15611 | 117.52338 | 34113 ft | 436 kts | 232° |
| 2026-05-08 09:04 | 24.11250 | 117.47684 | 34121 ft | 441 kts | 228° |
| 2026-05-08 09:04 | 24.06801 | 117.43332 | 34120 ft | 419 kts | 228° |
| 2026-05-08 09:05 | 24.02452 | 117.39066 | 34118 ft | 417 kts | 228° |
| 2026-05-08 09:05 | 23.98163 | 117.34856 | 34113 ft | 417 kts | 228° |
| 2026-05-08 09:06 | 23.93855 | 117.30612 | 34100 ft | 417 kts | 227° |
| 2026-05-08 09:06 | 23.89522 | 117.26356 | 34088 ft | 418 kts | 227° |
| 2026-05-08 09:07 | 23.85176 | 117.22129 | 34074 ft | 419 kts | 227° |
| 2026-05-08 09:07 | 23.80824 | 117.17887 | 34062 ft | 421 kts | 227° |
| 2026-05-08 09:08 | 23.76465 | 117.13575 | 34052 ft | 421 kts | 229° |
| 2026-05-08 09:08 | 23.72392 | 117.09024 | 34051 ft | 420 kts | 231° |
| 2026-05-08 09:09 | 23.68089 | 117.04121 | 34046 ft | 420 kts | 231° |
| 2026-05-08 09:09 | 23.64059 | 116.99529 | 34046 ft | 420 kts | 231° |
| 2026-05-08 09:10 | 23.60009 | 116.94920 | 34052 ft | 421 kts | 231° |
| 2026-05-08 09:10 | 23.55965 | 116.90318 | 34052 ft | 422 kts | 231° |
| 2026-05-08 09:11 | 23.51886 | 116.85677 | 34054 ft | 422 kts | 231° |
| 2026-05-08 09:11 | 23.48381 | 116.81698 | 33745 ft | 423 kts | 231° |
| 2026-05-08 09:12 | 23.46345 | 116.79396 | 33462 ft | 424 kts | 230° |
| 2026-05-08 09:12 | 23.44202 | 116.77165 | 33181 ft | 428 kts | 227° |
| 2026-05-08 09:12 | 23.41922 | 116.75040 | 32896 ft | 431 kts | 224° |
| 2026-05-08 09:12 | 23.39567 | 116.73050 | 32624 ft | 433 kts | 222° |
| 2026-05-08 09:13 | 23.37182 | 116.71069 | 32367 ft | 434 kts | 222° |
| 2026-05-08 09:13 | 23.34765 | 116.69061 | 32111 ft | 435 kts | 222° |
| 2026-05-08 09:13 | 23.32362 | 116.67065 | 31856 ft | 436 kts | 222° |
| 2026-05-08 09:13 | 23.29949 | 116.65062 | 31598 ft | 438 kts | 222° |
| 2026-05-08 09:14 | 23.27521 | 116.63046 | 31337 ft | 439 kts | 222° |
| 2026-05-08 09:14 | 23.25086 | 116.61025 | 31080 ft | 440 kts | 222° |
| 2026-05-08 09:14 | 23.22663 | 116.59013 | 30825 ft | 441 kts | 221° |
| 2026-05-08 09:14 | 23.20218 | 116.56986 | 30567 ft | 443 kts | 221° |
| 2026-05-08 09:15 | 23.17748 | 116.54936 | 30309 ft | 444 kts | 221° |
| 2026-05-08 09:15 | 23.15323 | 116.52925 | 30079 ft | 444 kts | 221° |
| 2026-05-08 09:15 | 23.10389 | 116.48837 | 30036 ft | 445 kts | 221° |
| 2026-05-08 09:16 | 23.05470 | 116.44761 | 30032 ft | 446 kts | 221° |
| 2026-05-08 09:16 | 23.00516 | 116.40664 | 30030 ft | 446 kts | 221° |
| 2026-05-08 09:17 | 22.96259 | 116.35931 | 30022 ft | 437 kts | 242° |
| 2026-05-08 09:17 | 22.94963 | 116.32994 | 30024 ft | 433 kts | 253° |
| 2026-05-08 09:17 | 22.94280 | 116.29847 | 30022 ft | 429 kts | 264° |
| 2026-05-08 09:18 | 22.93644 | 116.23395 | 30026 ft | 430 kts | 266° |
| 2026-05-08 09:18 | 22.93343 | 116.20212 | 29921 ft | 429 kts | 266° |
| 2026-05-08 09:18 | 22.93029 | 116.17020 | 29657 ft | 420 kts | 265° |
| 2026-05-08 09:19 | 22.92715 | 116.13869 | 29404 ft | 420 kts | 265° |
| 2026-05-08 09:19 | 22.92399 | 116.10762 | 29152 ft | 421 kts | 265° |
| 2026-05-08 09:19 | 22.92072 | 116.07578 | 28901 ft | 422 kts | 265° |
| 2026-05-08 09:19 | 22.91748 | 116.04447 | 28649 ft | 423 kts | 265° |
| 2026-05-08 09:20 | 22.91421 | 116.01288 | 28403 ft | 424 kts | 265° |
| 2026-05-08 09:20 | 22.91086 | 115.98092 | 28160 ft | 425 kts | 265° |
| 2026-05-08 09:20 | 22.90757 | 115.94946 | 27919 ft | 425 kts | 265° |
| 2026-05-08 09:20 | 22.90422 | 115.91755 | 27671 ft | 426 kts | 265° |
| 2026-05-08 09:21 | 22.90086 | 115.88568 | 27430 ft | 427 kts | 265° |
| 2026-05-08 09:21 | 22.89753 | 115.85374 | 27182 ft | 428 kts | 265° |
| 2026-05-08 09:22 | 22.87769 | 115.66076 | 25714 ft | 431 kts | 266° |
| 2026-05-08 09:23 | 22.87445 | 115.62890 | 25477 ft | 430 kts | 266° |
| 2026-05-08 09:23 | 22.87116 | 115.59638 | 25232 ft | 429 kts | 266° |
| 2026-05-08 09:23 | 22.86793 | 115.56454 | 24989 ft | 428 kts | 266° |
| 2026-05-08 09:23 | 22.86466 | 115.53254 | 24744 ft | 426 kts | 266° |
| 2026-05-08 09:24 | 22.86142 | 115.50074 | 24502 ft | 424 kts | 266° |
| 2026-05-08 09:24 | 22.85818 | 115.46904 | 24104 ft | 424 kts | 266° |
| 2026-05-08 09:24 | 22.85500 | 115.43796 | 23628 ft | 420 kts | 266° |
| 2026-05-08 09:24 | 22.85178 | 115.40650 | 23150 ft | 418 kts | 266° |
| 2026-05-08 09:25 | 22.84859 | 115.37544 | 22677 ft | 416 kts | 266° |
| 2026-05-08 09:25 | 22.84542 | 115.34441 | 22204 ft | 414 kts | 265° |
| 2026-05-08 09:25 | 22.84228 | 115.31380 | 21744 ft | 411 kts | 265° |
| 2026-05-08 09:25 | 22.83910 | 115.28285 | 21269 ft | 409 kts | 265° |
| 2026-05-08 09:26 | 22.83598 | 115.25268 | 20686 ft | 408 kts | 265° |
| 2026-05-08 09:26 | 22.83284 | 115.22224 | 20104 ft | 406 kts | 265° |
| 2026-05-08 09:26 | 22.82971 | 115.19198 | 19516 ft | 404 kts | 265° |
| 2026-05-08 09:26 | 22.82657 | 115.16180 | 18915 ft | 398 kts | 265° |
| 2026-05-08 09:27 | 22.82353 | 115.13261 | 18302 ft | 391 kts | 265° |
| 2026-05-08 09:27 | 22.82052 | 115.10363 | 17670 ft | 387 kts | 264° |
| 2026-05-08 09:27 | 22.81752 | 115.07475 | 17046 ft | 383 kts | 264° |
| 2026-05-08 09:27 | 22.81456 | 115.04642 | 16423 ft | 380 kts | 264° |
| 2026-05-08 09:28 | 22.81162 | 115.01844 | 15796 ft | 377 kts | 264° |
| 2026-05-08 09:28 | 22.80864 | 114.99016 | 15161 ft | 374 kts | 264° |
| 2026-05-08 09:28 | 22.80574 | 114.96262 | 14542 ft | 372 kts | 264° |
| 2026-05-08 09:28 | 22.80281 | 114.93472 | 13992 ft | 369 kts | 264° |
| 2026-05-08 09:29 | 22.79994 | 114.90730 | 13449 ft | 366 kts | 264° |
| 2026-05-08 09:29 | 22.79709 | 114.88024 | 12913 ft | 364 kts | 264° |
| 2026-05-08 09:29 | 22.79423 | 114.85304 | 12364 ft | 362 kts | 264° |
| 2026-05-08 09:29 | 22.79139 | 114.82626 | 11825 ft | 361 kts | 264° |
| 2026-05-08 09:30 | 22.78852 | 114.79930 | 11275 ft | 359 kts | 264° |
| 2026-05-08 09:30 | 22.78524 | 114.77279 | 10856 ft | 353 kts | 260° |
| 2026-05-08 09:30 | 22.77931 | 114.74701 | 10727 ft | 351 kts | 253° |
| 2026-05-08 09:30 | 22.77069 | 114.72246 | 10722 ft | 352 kts | 246° |
| 2026-05-08 09:31 | 22.76023 | 114.69844 | 10526 ft | 350 kts | 245° |
| 2026-05-08 09:31 | 22.74960 | 114.67490 | 10195 ft | 342 kts | 245° |
| 2026-05-08 09:31 | 22.73934 | 114.65228 | 9907 ft | 334 kts | 245° |
| 2026-05-08 09:31 | 22.72925 | 114.62992 | 9770 ft | 321 kts | 245° |
| 2026-05-08 09:32 | 22.71972 | 114.60870 | 9649 ft | 309 kts | 245° |
| 2026-05-08 09:32 | 22.71053 | 114.58826 | 9459 ft | 299 kts | 245° |
| 2026-05-08 09:32 | 22.70152 | 114.56820 | 9336 ft | 288 kts | 245° |
| 2026-05-08 09:32 | 22.69289 | 114.54898 | 9218 ft | 286 kts | 245° |
| 2026-05-08 09:33 | 22.68413 | 114.52949 | 9100 ft | 286 kts | 245° |
| 2026-05-08 09:33 | 22.67545 | 114.51020 | 8985 ft | 286 kts | 245° |
| 2026-05-08 09:33 | 22.66672 | 114.49080 | 8869 ft | 286 kts | 245° |
| 2026-05-08 09:33 | 22.65802 | 114.47148 | 8754 ft | 285 kts | 245° |
| 2026-05-08 09:34 | 22.64933 | 114.45219 | 8634 ft | 285 kts | 245° |
| 2026-05-08 09:34 | 22.64103 | 114.43274 | 8512 ft | 284 kts | 250° |
| 2026-05-08 09:34 | 22.63522 | 114.41230 | 8393 ft | 283 kts | 258° |
| 2026-05-08 09:34 | 22.63190 | 114.39164 | 8277 ft | 283 kts | 262° |
| 2026-05-08 09:35 | 22.62917 | 114.37058 | 8012 ft | 282 kts | 263° |
| 2026-05-08 09:35 | 22.62649 | 114.34952 | 7697 ft | 280 kts | 262° |
| 2026-05-08 09:35 | 22.62376 | 114.32858 | 7386 ft | 279 kts | 262° |
| 2026-05-08 09:35 | 22.62102 | 114.30796 | 7077 ft | 278 kts | 262° |
| 2026-05-08 09:36 | 22.61823 | 114.28725 | 6765 ft | 278 kts | 262° |
| 2026-05-08 09:36 | 22.61539 | 114.26650 | 6456 ft | 278 kts | 262° |
| 2026-05-08 09:36 | 22.61258 | 114.24580 | 6143 ft | 278 kts | 262° |
| 2026-05-08 09:36 | 22.60978 | 114.22536 | 5833 ft | 277 kts | 262° |
| 2026-05-08 09:37 | 22.60695 | 114.20466 | 5519 ft | 276 kts | 262° |
| 2026-05-08 09:37 | 22.60417 | 114.18426 | 5207 ft | 275 kts | 262° |
| 2026-05-08 09:37 | 22.60139 | 114.16399 | 4947 ft | 270 kts | 262° |
| 2026-05-08 09:37 | 22.59871 | 114.14442 | 4899 ft | 257 kts | 262° |
| 2026-05-08 09:38 | 22.59615 | 114.12579 | 4885 ft | 242 kts | 262° |
| 2026-05-08 09:38 | 22.59344 | 114.10847 | 4874 ft | 227 kts | 256° |
| 2026-05-08 09:38 | 22.58811 | 114.09248 | 4760 ft | 225 kts | 245° |
| 2026-05-08 09:38 | 22.58103 | 114.07743 | 4637 ft | 225 kts | 242° |
| 2026-05-08 09:39 | 22.57356 | 114.06232 | 4510 ft | 225 kts | 242° |
| 2026-05-08 09:39 | 22.56630 | 114.04758 | 4355 ft | 225 kts | 243° |
| 2026-05-08 09:39 | 22.55887 | 114.03239 | 4060 ft | 226 kts | 243° |
| 2026-05-08 09:39 | 22.55159 | 114.01738 | 3774 ft | 226 kts | 243° |
| 2026-05-08 09:40 | 22.54431 | 114.00234 | 3487 ft | 226 kts | 243° |
| 2026-05-08 09:40 | 22.53706 | 113.98733 | 3260 ft | 222 kts | 243° |
| 2026-05-08 09:40 | 22.53007 | 113.97270 | 3135 ft | 222 kts | 244° |
| 2026-05-08 09:40 | 22.52328 | 113.95753 | 3018 ft | 223 kts | 245° |
| 2026-05-08 09:41 | 22.51630 | 113.94245 | 2883 ft | 223 kts | 243° |
| 2026-05-08 09:41 | 22.50909 | 113.92775 | 2661 ft | 223 kts | 242° |
| 2026-05-08 09:41 | 22.50177 | 113.91296 | 2422 ft | 222 kts | 242° |
| 2026-05-08 09:41 | 22.49462 | 113.89843 | 2303 ft | 220 kts | 246° |
| 2026-05-08 09:42 | 22.49186 | 113.88253 | 2253 ft | 210 kts | 285° |
| 2026-05-08 09:42 | 22.49883 | 113.87014 | 2304 ft | 186 kts | 323° |
| 2026-05-08 09:42 | 22.51010 | 113.86273 | 2399 ft | 190 kts | 335° |
| 2026-05-08 09:42 | 22.52205 | 113.85683 | 2148 ft | 187 kts | 337° |
| 2026-05-08 09:43 | 22.53378 | 113.85099 | 1904 ft | 183 kts | 336° |
| 2026-05-08 09:43 | 22.54497 | 113.84505 | 1694 ft | 176 kts | 335° |
| 2026-05-08 09:43 | 22.55560 | 113.83919 | 1449 ft | 164 kts | 334° |
| 2026-05-08 09:43 | 22.56525 | 113.83384 | 1231 ft | 149 kts | 334° |
| 2026-05-08 09:44 | 22.57422 | 113.82890 | 1047 ft | 142 kts | 334° |
| 2026-05-08 09:44 | 22.58307 | 113.82404 | 883 ft | 141 kts | 334° |
| 2026-05-08 09:44 | 22.59177 | 113.81925 | 713 ft | 140 kts | 333° |
| 2026-05-08 09:44 | 22.60055 | 113.81444 | 537 ft | 140 kts | 332° |
| 2026-05-08 09:45 | 22.60910 | 113.80966 | 349 ft | 139 kts | 332° |
| 2026-05-08 09:45 | 22.61774 | 113.80495 | 175 ft | 138 kts | 332° |
| 2026-05-08 09:45 | 22.62629 | 113.80029 | 41 ft | 136 kts | 332° |
| 2026-05-08 09:45 | 22.63403 | 113.79601 | 21 ft | 105 kts | 334° |
| 2026-05-08 09:46 | 22.63903 | 113.79331 | 21 ft | 57 kts | 333° |
| 2026-05-08 09:46 | 22.64162 | 113.79243 | 21 ft | 26 kts | 358° |
| 2026-05-08 09:46 | 22.64252 | 113.79246 | 21 ft | 4 kts | 2° |
| 2026-05-08 09:46 | 22.64284 | 113.79247 | 21 ft | 5 kts | 2° |
| 2026-05-08 09:47 | 22.64323 | 113.79253 | 21 ft | 5 kts | 30° |
| 2026-05-08 09:47 | 22.64330 | 113.79295 | 21 ft | 6 kts | 122° |
| 2026-05-08 09:47 | 22.64292 | 113.79336 | 21 ft | 8 kts | 142° |
| 2026-05-08 09:47 | 22.64237 | 113.79367 | 21 ft | 9 kts | 154° |
| 2026-05-08 09:48 | 22.64175 | 113.79399 | 21 ft | 10 kts | 155° |
| 2026-05-08 09:48 | 22.64107 | 113.79436 | 21 ft | 11 kts | 152° |
| 2026-05-08 09:48 | 22.64034 | 113.79479 | 21 ft | 12 kts | 152° |
| 2026-05-08 09:48 | 22.63954 | 113.79522 | 21 ft | 13 kts | 153° |
| 2026-05-08 09:49 | 22.63870 | 113.79569 | 21 ft | 14 kts | 153° |
| 2026-05-08 09:49 | 22.63780 | 113.79619 | 21 ft | 14 kts | 152° |
| 2026-05-08 09:49 | 22.63687 | 113.79667 | 21 ft | 15 kts | 152° |
| 2026-05-08 09:49 | 22.63591 | 113.79719 | 21 ft | 15 kts | 152° |
| 2026-05-08 09:50 | 22.63494 | 113.79774 | 21 ft | 15 kts | 152° |
| 2026-05-08 09:50 | 22.63394 | 113.79829 | 21 ft | 16 kts | 153° |
| 2026-05-08 09:50 | 22.63293 | 113.79884 | 21 ft | 15 kts | 153° |
| 2026-05-08 09:50 | 22.63209 | 113.79930 | 21 ft | 8 kts | 149° |
| 2026-05-08 09:51 | 22.63202 | 113.79989 | 21 ft | 9 kts | 63° |
| 2026-05-08 09:51 | 22.63234 | 113.80057 | 21 ft | 10 kts | 63° |
| 2026-05-08 09:51 | 22.63270 | 113.80132 | 21 ft | 10 kts | 63° |
| 2026-05-08 09:51 | 22.63283 | 113.80180 | 21 ft | 5 kts | 115° |
| 2026-05-08 09:52 | 22.63251 | 113.80205 | 21 ft | 4 kts | 153° |
| 2026-05-08 09:52 | 22.63234 | 113.80215 | 21 ft | 0 kts | 153° |